createdAt,value
2023-04-18T00:00:57.252Z,4.20
2023-04-18T00:04:02.983Z,4.20
2023-04-18T00:07:07.636Z,4.20
2023-04-18T00:10:11.582Z,4.10
2023-04-18T00:13:18.294Z,4.10
2023-04-18T00:16:22.717Z,4.10
2023-04-18T00:19:27.672Z,4.10
2023-04-18T00:22:31.964Z,4.10
2023-04-18T00:25:36.101Z,4.00
2023-04-18T00:28:40.697Z,4.00
2023-04-18T00:31:44.524Z,4.10
2023-04-18T00:34:49.708Z,4.10
2023-04-18T00:37:53.899Z,4.10
2023-04-18T00:40:57.957Z,4.10
2023-04-18T00:44:02.544Z,4.10
2023-04-18T00:47:07.141Z,4.20
2023-04-18T00:50:11.975Z,4.10
2023-04-18T00:53:16.689Z,4.10
2023-04-18T00:56:23.807Z,4.10
2023-04-18T00:59:27.917Z,4.10
2023-04-18T01:02:33.676Z,4.00
2023-04-18T01:05:38.156Z,4.00
2023-04-18T01:08:42.765Z,3.90
2023-04-18T01:11:47.495Z,3.90
2023-04-18T01:14:54.114Z,3.90
2023-04-18T01:17:59.918Z,3.90
2023-04-18T01:21:06.159Z,3.80
2023-04-18T01:24:14.058Z,3.80
2023-04-18T01:27:18.800Z,3.80
2023-04-18T01:30:22.770Z,3.70
2023-04-18T01:33:28.962Z,3.80
2023-04-18T01:36:33.874Z,3.70
2023-04-18T01:39:38.108Z,3.70
2023-04-18T01:42:42.609Z,3.80
2023-04-18T01:45:48.719Z,3.80
2023-04-18T01:48:52.806Z,3.90
2023-04-18T01:51:58.807Z,3.90
2023-04-18T01:55:03.910Z,4.00
2023-04-18T01:58:08.350Z,4.00
2023-04-18T02:01:14.257Z,4.00
2023-04-18T02:04:18.681Z,4.00
2023-04-18T02:07:24.076Z,4.00
2023-04-18T02:10:28.704Z,3.90
2023-04-18T02:13:33.476Z,3.80
2023-04-18T02:16:38.901Z,3.80
2023-04-18T02:19:43.253Z,3.70
2023-04-18T02:22:47.495Z,3.70
2023-04-18T02:25:51.592Z,3.70
2023-04-18T02:28:56.244Z,3.60
2023-04-18T02:32:00.684Z,3.60
2023-04-18T02:35:05.076Z,3.50
2023-04-18T02:38:09.366Z,3.40
2023-04-18T02:41:17.298Z,3.40
2023-04-18T02:44:21.607Z,3.30
2023-04-18T02:47:26.119Z,3.30
2023-04-18T02:50:30.770Z,3.20
2023-04-18T02:53:36.029Z,3.20
2023-04-18T02:56:41.889Z,3.10
2023-04-18T03:00:18.242Z,3.10
2023-04-18T03:03:41.269Z,3.00
2023-04-18T03:06:59.477Z,3.00
2023-04-18T03:10:05.869Z,3.00
2023-04-18T03:13:13.078Z,2.90
2023-04-18T03:16:17.964Z,2.80
2023-04-18T03:19:22.289Z,2.90
2023-04-18T03:22:28.781Z,2.80
2023-04-18T03:25:35.008Z,2.80
2023-04-18T03:28:40.797Z,2.70
2023-04-18T03:31:45.799Z,2.70
2023-04-18T03:34:51.199Z,2.60
2023-04-18T03:37:56.069Z,2.60
2023-04-18T03:41:06.521Z,2.50
2023-04-18T03:44:13.865Z,2.50
2023-04-18T03:47:19.160Z,2.50
2023-04-18T03:50:27.273Z,2.40
2023-04-18T03:53:34.130Z,2.40
2023-04-18T03:56:39.070Z,2.40
2023-04-18T03:59:43.289Z,2.30
2023-04-18T04:02:48.033Z,2.30
2023-04-18T04:05:57.880Z,2.30
2023-04-18T04:09:02.432Z,2.30
2023-04-18T04:12:07.252Z,2.20
2023-04-18T04:15:12.286Z,2.20
2023-04-18T04:18:29.760Z,2.20
2023-04-18T04:21:35.897Z,2.30
2023-04-18T04:24:42.708Z,2.40
2023-04-18T04:27:49.607Z,2.50
2023-04-18T04:30:55.518Z,2.60
2023-04-18T04:34:00.503Z,2.60
2023-04-18T04:37:05.180Z,2.70
2023-04-18T04:40:15.653Z,2.70
2023-04-18T04:43:29.408Z,2.80
2023-04-18T04:46:34.529Z,2.90
2023-04-18T04:49:43.690Z,3.10
2023-04-18T04:52:47.532Z,3.30
2023-04-18T04:55:52.184Z,3.60
2023-04-18T04:58:56.737Z,3.90
2023-04-18T05:02:07.532Z,4.20
2023-04-18T05:05:14.084Z,4.50
2023-04-18T05:08:18.315Z,4.70
2023-04-18T05:11:23.410Z,4.90
2023-04-18T05:14:27.942Z,5.20
2023-04-18T05:17:31.968Z,5.40
2023-04-18T05:20:36.532Z,5.70
2023-04-18T05:23:40.746Z,5.90
2023-04-18T05:26:44.943Z,6.30
2023-04-18T05:29:50.289Z,6.50
2023-04-18T05:32:54.392Z,6.70
2023-04-18T05:35:59.039Z,7.00
2023-04-18T05:39:03.338Z,7.20
2023-04-18T05:42:07.450Z,7.50
2023-04-18T05:45:12.065Z,7.70
2023-04-18T05:48:16.282Z,7.90
2023-04-18T05:51:20.741Z,7.90
2023-04-18T05:54:25.338Z,8.10
2023-04-18T05:57:29.625Z,8.40
2023-04-18T06:00:34.794Z,8.60
2023-04-18T06:03:39.560Z,8.90
2023-04-18T06:06:43.917Z,9.30
2023-04-18T06:09:49.762Z,9.30
2023-04-18T06:12:54.285Z,9.60
2023-04-18T06:15:58.552Z,10.00
2023-04-18T06:19:03.587Z,10.00
2023-04-18T06:22:08.519Z,10.30
2023-04-18T06:25:12.965Z,10.30
2023-04-18T06:28:17.334Z,10.40
2023-04-18T06:31:22.174Z,10.60
2023-04-18T06:34:26.314Z,10.70
2023-04-18T06:37:30.446Z,10.90
2023-04-18T06:40:34.930Z,11.00
2023-04-18T06:43:40.001Z,11.40
2023-04-18T06:46:46.739Z,11.50
2023-04-18T06:49:50.916Z,11.40
2023-04-18T06:52:55.831Z,11.30
2023-04-18T06:56:00.530Z,11.80
2023-04-18T06:59:05.028Z,12.00
2023-04-18T07:02:09.612Z,12.30
2023-04-18T07:05:14.235Z,12.10
2023-04-18T07:08:18.298Z,12.50
2023-04-18T07:11:23.492Z,12.60
2023-04-18T07:14:28.408Z,12.60
2023-04-18T07:17:32.982Z,12.60
2023-04-18T07:20:37.241Z,12.70
2023-04-18T07:23:41.911Z,12.80
2023-04-18T07:26:46.633Z,12.90
2023-04-18T07:29:51.099Z,13.30
2023-04-18T07:32:54.929Z,13.50
2023-04-18T07:36:00.667Z,13.50
2023-04-18T07:39:04.869Z,13.50
2023-04-18T07:42:11.216Z,13.90
2023-04-18T07:45:15.508Z,14.10
2023-04-18T07:48:22.116Z,14.60
2023-04-18T07:51:31.149Z,14.20
2023-04-18T07:54:35.296Z,14.20
2023-04-18T07:57:39.183Z,14.00
2023-04-18T08:00:44.737Z,14.60
2023-04-18T08:03:48.966Z,15.10
2023-04-18T08:06:53.696Z,15.10
2023-04-18T08:09:58.091Z,15.50
2023-04-18T08:13:02.786Z,15.80
2023-04-18T08:16:06.967Z,16.00
2023-04-18T08:19:11.599Z,16.10
2023-04-18T08:22:16.105Z,16.20
2023-04-18T08:25:20.629Z,16.60
2023-04-18T08:28:24.859Z,16.10
2023-04-18T08:31:29.369Z,16.40
2023-04-18T08:34:36.392Z,17.30
2023-04-18T08:37:40.992Z,16.80
2023-04-18T08:40:45.829Z,17.60
2023-04-18T08:43:50.969Z,17.90
2023-04-18T08:46:55.924Z,17.90
2023-04-18T08:50:00.847Z,17.90
2023-04-18T08:53:05.826Z,18.70
2023-04-18T08:56:10.704Z,18.60
2023-04-18T08:59:18.394Z,18.20
2023-04-18T09:02:38.807Z,18.70
2023-04-18T09:05:43.040Z,19.30
2023-04-18T09:08:58.867Z,19.30
2023-04-18T09:12:07.681Z,19.60
2023-04-18T09:15:15.631Z,19.90
2023-04-18T09:18:20.228Z,20.10
2023-04-18T09:21:24.697Z,19.90
2023-04-18T09:24:29.130Z,19.70
2023-04-18T09:27:34.615Z,20.30
2023-04-18T09:30:40.138Z,19.40
2023-04-18T09:33:57.153Z,19.90
2023-04-18T09:37:09.278Z,20.10
2023-04-18T09:40:18.563Z,19.80
2023-04-18T09:43:22.949Z,20.30
2023-04-18T09:46:27.544Z,20.50
2023-04-18T09:49:32.529Z,20.90
2023-04-18T09:52:38.218Z,20.20
2023-04-18T09:55:42.936Z,20.50
2023-04-18T09:58:47.241Z,21.40
2023-04-18T10:01:51.759Z,20.20
2023-04-18T10:04:56.434Z,20.20
2023-04-18T10:08:01.027Z,19.80
2023-04-18T10:11:05.747Z,19.90
2023-04-18T10:14:12.485Z,19.70
2023-04-18T10:17:17.085Z,19.60
2023-04-18T10:20:22.700Z,20.50
2023-04-18T10:23:37.282Z,20.30
2023-04-18T10:26:50.208Z,20.70
2023-04-18T10:29:54.616Z,20.20
2023-04-18T10:32:58.803Z,19.90
2023-04-18T10:36:05.543Z,21.40
2023-04-18T10:39:21.099Z,21.50
2023-04-18T10:42:44.804Z,21.20
2023-04-18T10:46:20.203Z,22.20
2023-04-18T10:49:35.592Z,20.90
2023-04-18T10:52:39.705Z,21.80
2023-04-18T10:55:46.116Z,21.60
2023-04-18T10:58:51.625Z,22.40
2023-04-18T11:01:57.631Z,21.50
2023-04-18T11:05:04.590Z,22.40
2023-04-18T11:08:22.558Z,22.20
2023-04-18T11:11:26.902Z,22.80
2023-04-18T11:14:41.483Z,22.60
2023-04-18T11:17:46.175Z,22.10
2023-04-18T11:20:51.245Z,20.90
2023-04-18T11:23:56.036Z,21.70
2023-04-18T11:27:00.641Z,22.20
2023-04-18T11:30:05.825Z,21.80
2023-04-18T11:33:11.613Z,21.00
2023-04-18T11:36:16.133Z,20.30
2023-04-18T11:39:20.904Z,20.00
2023-04-18T11:42:28.614Z,20.10
2023-04-18T11:45:32.900Z,20.10
2023-04-18T11:48:45.284Z,21.30
2023-04-18T11:51:49.525Z,21.50
2023-04-18T11:54:53.979Z,22.20
2023-04-18T11:57:59.014Z,20.90
2023-04-18T12:01:19.278Z,20.60
2023-04-18T12:04:24.043Z,21.00
2023-04-18T12:07:35.010Z,22.20
2023-04-18T12:10:52.310Z,23.70
2023-04-18T12:13:56.814Z,22.30
2023-04-18T12:17:02.968Z,22.40
2023-04-18T12:20:09.850Z,24.20
2023-04-18T12:23:30.239Z,25.20
2023-04-18T12:26:34.390Z,23.60
2023-04-18T12:29:39.627Z,24.10
2023-04-18T12:32:44.896Z,23.90
2023-04-18T12:35:49.774Z,24.40
2023-04-18T12:38:53.959Z,24.40
2023-04-18T12:41:58.481Z,24.10
2023-04-18T12:45:07.477Z,22.80
2023-04-18T12:48:12.335Z,23.30
2023-04-18T12:51:16.799Z,22.50
2023-04-18T12:54:21.013Z,23.80
2023-04-18T12:57:25.508Z,22.90
2023-04-18T13:00:31.218Z,24.40
2023-04-18T13:03:36.600Z,21.10
2023-04-18T13:06:41.008Z,22.70
2023-04-18T13:09:46.485Z,21.90
2023-04-18T13:12:51.600Z,21.60
2023-04-18T13:15:56.203Z,22.20
2023-04-18T13:19:00.478Z,22.00
2023-04-18T13:22:04.917Z,21.00
2023-04-18T13:25:13.259Z,22.80
2023-04-18T13:28:17.670Z,24.10
2023-04-18T13:31:21.963Z,24.60
2023-04-18T13:34:26.556Z,22.70
2023-04-18T13:37:31.398Z,22.40
2023-04-18T13:40:36.029Z,21.90
2023-04-18T13:43:40.295Z,22.50
2023-04-18T13:46:44.622Z,23.60
2023-04-18T13:49:49.641Z,24.70
2023-04-18T13:52:54.839Z,21.60
2023-04-18T13:56:01.120Z,21.70
2023-04-18T13:59:05.390Z,20.50
2023-04-18T14:02:10.446Z,19.70
2023-04-18T14:05:15.060Z,21.80
2023-04-18T14:08:19.651Z,20.70
2023-04-18T14:11:24.412Z,22.40
2023-04-18T14:14:28.718Z,23.20
2023-04-18T14:17:33.127Z,21.60
2023-04-18T14:20:37.722Z,20.40
2023-04-18T14:23:41.945Z,22.10
2023-04-18T14:26:46.731Z,22.50
2023-04-18T14:29:51.273Z,23.20
2023-04-18T14:32:55.906Z,21.80
2023-04-18T14:36:01.691Z,22.80
2023-04-18T14:39:06.068Z,23.80
2023-04-18T14:42:10.801Z,23.40
2023-04-18T14:45:16.453Z,23.30
2023-04-18T14:48:21.133Z,21.70
2023-04-18T14:51:26.222Z,21.40
2023-04-18T14:54:32.608Z,23.60
2023-04-18T14:57:37.718Z,23.20
2023-04-18T15:00:42.491Z,23.30
2023-04-18T15:03:50.019Z,22.70
2023-04-18T15:06:54.545Z,23.80
2023-04-18T15:10:00.759Z,24.10
2023-04-18T15:13:05.664Z,21.70
2023-04-18T15:16:09.825Z,19.80
2023-04-18T15:19:14.306Z,21.20
2023-04-18T15:22:18.338Z,18.90
2023-04-18T15:25:22.887Z,20.40
2023-04-18T15:28:27.496Z,18.10
2023-04-18T15:31:32.384Z,17.30
2023-04-18T15:34:36.935Z,16.80
2023-04-18T15:37:41.869Z,16.40
2023-04-18T15:40:46.912Z,17.50
2023-04-18T15:43:52.732Z,16.90
2023-04-18T15:46:58.157Z,15.40
2023-04-18T15:50:03.482Z,15.80
2023-04-18T15:53:08.259Z,15.60
2023-04-18T15:56:13.780Z,15.90
2023-04-18T15:59:17.821Z,15.50
2023-04-18T16:02:22.436Z,15.20
2023-04-18T16:05:27.117Z,15.10
2023-04-18T16:08:33.154Z,15.00
2023-04-18T16:11:37.742Z,14.30
2023-04-18T16:14:41.824Z,14.40
2023-04-18T16:17:46.489Z,14.00
2023-04-18T16:20:51.738Z,14.10
2023-04-18T16:23:56.393Z,14.30
2023-04-18T16:27:00.810Z,14.00
2023-04-18T16:30:05.398Z,14.30
2023-04-18T16:33:09.796Z,15.20
2023-04-18T16:36:14.263Z,15.50
2023-04-18T16:39:19.225Z,16.20
2023-04-18T16:42:23.760Z,15.20
2023-04-18T16:45:27.977Z,16.30
2023-04-18T16:48:32.504Z,15.70
2023-04-18T16:51:37.314Z,16.00
2023-04-18T16:54:41.889Z,15.60
2023-04-18T16:57:45.907Z,16.30
2023-04-18T17:00:50.459Z,16.80
2023-04-18T17:03:55.000Z,16.80
2023-04-18T17:07:00.627Z,13.80
2023-04-18T17:10:06.093Z,13.20
2023-04-18T17:13:11.055Z,13.60
2023-04-18T17:16:15.694Z,13.80
2023-04-18T17:19:20.260Z,13.20
2023-04-18T17:22:24.936Z,12.10
2023-04-18T17:25:29.526Z,12.20
2023-04-18T17:28:33.778Z,11.50
2023-04-18T17:31:38.431Z,11.00
2023-04-18T17:34:42.852Z,11.30
2023-04-18T17:37:48.242Z,11.40
2023-04-18T17:40:59.778Z,11.40
2023-04-18T17:44:04.496Z,11.30
2023-04-18T17:47:08.869Z,11.10
2023-04-18T17:50:13.730Z,11.00
2023-04-18T17:53:19.588Z,10.70
2023-04-18T17:56:24.296Z,10.70
2023-04-18T17:59:28.468Z,10.70
2023-04-18T18:02:33.140Z,10.70
2023-04-18T18:05:37.828Z,10.80
2023-04-18T18:08:43.114Z,10.70
2023-04-18T18:11:47.516Z,10.70
2023-04-18T18:14:52.059Z,10.70
2023-04-18T18:17:56.435Z,10.60
2023-04-18T18:21:01.257Z,10.50
2023-04-18T18:24:06.131Z,10.50
2023-04-18T18:27:10.818Z,10.40
2023-04-18T18:30:15.319Z,10.30
2023-04-18T18:33:20.046Z,10.30
2023-04-18T18:36:24.925Z,10.30
2023-04-18T18:39:29.154Z,10.20
2023-04-18T18:42:33.445Z,10.20
2023-04-18T18:45:38.399Z,10.20
2023-04-18T18:48:42.758Z,10.10
2023-04-18T18:51:47.094Z,10.00
2023-04-18T18:54:51.348Z,10.00
2023-04-18T18:57:56.159Z,9.80
2023-04-18T19:01:02.372Z,9.90
2023-04-18T19:04:07.705Z,9.80
2023-04-18T19:07:12.404Z,9.70
2023-04-18T19:10:17.280Z,9.60
2023-04-18T19:13:22.620Z,9.60
2023-04-18T19:16:28.133Z,9.50
2023-04-18T19:19:32.256Z,9.30
2023-04-18T19:22:37.433Z,9.20
2023-04-18T19:25:42.499Z,9.10
2023-04-18T19:28:46.482Z,9.10
2023-04-18T19:31:51.462Z,9.10
2023-04-18T19:34:55.890Z,9.10
2023-04-18T19:38:02.176Z,9.10
2023-04-18T19:41:06.837Z,9.10
2023-04-18T19:44:11.485Z,9.00
2023-04-18T19:47:15.734Z,9.00
2023-04-18T19:50:20.147Z,9.00
2023-04-18T19:53:24.594Z,9.00
2023-04-18T19:56:29.203Z,8.90
2023-04-18T19:59:33.716Z,8.90
2023-04-18T20:02:39.034Z,8.80
2023-04-18T20:05:43.069Z,8.80
2023-04-18T20:08:47.612Z,8.70
2023-04-18T20:11:54.257Z,8.70
2023-04-18T20:14:59.021Z,8.60
2023-04-18T20:18:03.479Z,8.50
2023-04-18T20:21:08.862Z,8.50
2023-04-18T20:24:14.304Z,8.40
2023-04-18T20:27:20.553Z,8.40
2023-04-18T20:30:25.762Z,8.30
2023-04-18T20:33:30.423Z,8.30
2023-04-18T20:36:35.464Z,8.10
2023-04-18T20:39:39.998Z,8.10
2023-04-18T20:42:44.139Z,8.00
2023-04-18T20:45:50.818Z,7.90
2023-04-18T20:48:55.549Z,7.80
2023-04-18T20:52:00.221Z,7.80
2023-04-18T20:55:04.885Z,7.70
2023-04-18T20:58:09.116Z,7.60
2023-04-18T21:01:13.090Z,7.50
2023-04-18T21:04:17.968Z,7.40
2023-04-18T21:07:22.579Z,7.40
2023-04-18T21:10:26.713Z,7.30
2023-04-18T21:13:31.809Z,7.30
2023-04-18T21:16:39.241Z,7.20
2023-04-18T21:19:47.039Z,7.10
2023-04-18T21:22:51.270Z,7.10
2023-04-18T21:25:55.793Z,7.00
2023-04-18T21:29:01.551Z,7.00
2023-04-18T21:32:06.283Z,7.00
2023-04-18T21:35:10.886Z,7.10
2023-04-18T21:38:15.449Z,7.10
2023-04-18T21:41:20.571Z,7.10
2023-04-18T21:44:24.851Z,7.10
2023-04-18T21:47:29.475Z,7.20
2023-04-18T21:50:34.008Z,7.20
2023-04-18T21:53:39.111Z,7.20
2023-04-18T21:56:43.906Z,7.20
2023-04-18T21:59:48.214Z,7.20
2023-04-18T22:02:52.831Z,7.20
2023-04-18T22:05:57.669Z,7.10
2023-04-18T22:09:02.258Z,7.10
2023-04-18T22:12:06.887Z,7.10
2023-04-18T22:15:12.248Z,7.10
2023-04-18T22:18:16.459Z,7.00
2023-04-18T22:21:20.931Z,7.00
2023-04-18T22:24:28.389Z,7.00
2023-04-18T22:27:33.079Z,7.00
2023-04-18T22:30:38.206Z,7.00
2023-04-18T22:33:42.694Z,7.00
2023-04-18T22:36:46.600Z,6.90
2023-04-18T22:39:51.091Z,6.90
2023-04-18T22:42:56.008Z,6.80
2023-04-18T22:46:00.661Z,6.70
2023-04-18T22:49:05.580Z,6.70
2023-04-18T22:52:09.823Z,6.60
2023-04-18T22:55:16.397Z,6.50
2023-04-18T22:58:20.888Z,6.50
2023-04-18T23:01:25.447Z,6.50
2023-04-18T23:04:30.197Z,6.40
2023-04-18T23:07:34.687Z,6.40
2023-04-18T23:10:39.250Z,6.30
2023-04-18T23:13:43.115Z,6.30
2023-04-18T23:16:47.580Z,6.20
2023-04-18T23:19:51.674Z,6.20
2023-04-18T23:22:56.151Z,6.20
2023-04-18T23:26:00.758Z,6.20
2023-04-18T23:29:05.357Z,6.10
2023-04-18T23:32:10.205Z,6.10
2023-04-18T23:35:14.492Z,6.00
2023-04-18T23:38:19.190Z,6.00
2023-04-18T23:41:24.181Z,6.00
2023-04-18T23:44:27.994Z,6.00
2023-04-18T23:47:32.044Z,6.00
2023-04-18T23:50:36.235Z,6.00
2023-04-18T23:53:40.453Z,5.90
2023-04-18T23:56:44.732Z,5.80
2023-04-18T23:59:49.131Z,5.70
